Time;durP1;ratioP1;P1;durP2;ratioP2;P2;SDS_P1;SDS_P2;PMS_P1;PMS_P2;Temp;Humidity;BMP_temperature;BMP_pressure;BME280_temperature;BME280_humidity;BME280_pressure;Samples;Min_cycle;Max_cycle;Signal;HPM_P1;HPM_P2
2022/01/22 00:00:58;;;;;;;;;46.00;35.50;17.80;99.90;;;;;;5019765;28;8737;-66
2022/01/22 00:03:25;;;;;;;;;31.50;27.25;17.80;99.90;;;;;;5019111;28;8824;-66
2022/01/22 00:05:51;;;;;;;;;38.75;31.50;17.80;99.90;;;;;;5029009;28;8868;-66
2022/01/22 00:08:18;;;;;;;;;28.00;28.00;17.80;99.90;;;;;;5038816;28;8769;-66
2022/01/22 00:10:45;;;;;;;;;37.75;31.50;17.70;99.90;;;;;;5038898;28;8843;-66
2022/01/22 00:15:45;;;;;;;;;41.00;32.25;17.70;99.90;;;;;;5039327;28;8762;-66
2022/01/22 00:18:12;;;;;;;;;37.25;33.50;17.60;99.90;;;;;;5039321;28;8781;-66
2022/01/22 00:20:39;;;;;;;;;40.50;34.00;17.80;99.90;;;;;;5029913;28;8809;-66
2022/01/22 00:23:05;;;;;;;;;37.75;32.75;17.80;99.90;;;;;;5018659;28;8745;-66
2022/01/22 00:25:32;;;;;;;;;39.75;34.00;17.80;99.90;;;;;;5018403;28;8729;-66
2022/01/22 00:28:00;;;;;;;;;44.75;36.00;17.80;99.90;;;;;;5019304;28;9386;-67
2022/01/22 00:30:27;;;;;;;;;45.75;39.00;17.80;99.90;;;;;;5018267;28;8803;-66
2022/01/22 00:32:54;;;;;;;;;52.25;41.75;17.80;99.90;;;;;;5018321;28;8798;-66
2022/01/22 00:35:22;;;;;;;;;58.25;45.25;17.90;99.90;;;;;;5022588;28;8792;-66
2022/01/22 00:37:49;;;;;;;;;58.00;46.50;17.70;99.90;;;;;;5020854;28;8888;-66
2022/01/22 00:40:17;;;;;;;;;60.00;46.00;17.70;99.90;;;;;;5037699;28;8730;-66
2022/01/22 00:42:44;;;;;;;;;50.00;39.50;17.80;99.90;;;;;;5053460;28;8743;-66
2022/01/22 00:45:11;;;;;;;;;57.75;45.75;17.80;99.90;;;;;;5038056;28;8754;-66
2022/01/22 00:47:38;;;;;;;;;58.25;44.00;17.80;99.90;;;;;;5020180;28;8769;-66
2022/01/22 00:50:06;;;;;;;;;57.00;43.75;17.90;99.90;;;;;;5034321;28;8769;-66
2022/01/22 00:52:33;;;;;;;;;58.25;45.50;18.00;99.90;;;;;;5016194;28;8796;-66
2022/01/22 00:54:59;;;;;;;;;54.50;42.75;17.90;99.90;;;;;;5018362;28;9452;-66
2022/01/22 00:57:26;;;;;;;;;56.25;44.25;17.90;99.90;;;;;;5017825;28;8736;-66
2022/01/22 00:59:54;;;;;;;;;56.25;45.75;18.10;99.90;;;;;;5018104;28;8745;-66
2022/01/22 01:02:20;;;;;;;;;56.75;45.25;18.10;99.90;;;;;;5016328;28;8866;-65
2022/01/22 01:04:47;;;;;;;;;55.75;44.00;18.20;99.90;;;;;;5018970;28;9839;-66
2022/01/22 01:07:14;;;;;;;;;51.00;39.75;18.30;99.90;;;;;;5037260;28;8762;-66
2022/01/22 01:09:41;;;;;;;;;48.25;38.75;18.40;99.90;;;;;;5037170;28;8762;-66
2022/01/22 01:12:11;;;;;;;;;50.25;39.25;18.40;99.90;;;;;;5037228;28;9473;-65
2022/01/22 01:14:47;;;;;;;;;48.25;37.75;18.50;99.90;;;;;;5035834;28;8778;-66
2022/01/22 01:17:46;;;;;;;;;38.25;33.25;18.50;99.90;;;;;;5037457;28;8758;-66
2022/01/22 01:34:09;;;;;;;;;38.50;33.00;19.00;99.90;;;;;;5017963;28;8788;-66
2022/01/22 01:36:36;;;;;;;;;40.75;31.00;19.10;99.90;;;;;;5032172;28;8769;-66
2022/01/22 01:39:05;;;;;;;;;34.50;30.25;19.20;99.90;;;;;;5037210;28;8850;-66
2022/01/22 01:42:18;;;;;;;;;39.25;31.75;19.20;99.90;;;;;;5028679;28;8768;-66
2022/01/22 01:44:21;;;;;;;;;38.50;32.75;19.40;99.90;;;;;;5034949;28;8832;-66
2022/01/22 01:46:51;;;;;;;;;44.00;37.00;19.50;99.90;;;;;;5035590;28;8750;-66
2022/01/22 01:49:17;;;;;;;;;44.75;35.00;19.50;99.90;;;;;;5037022;28;8788;-66
2022/01/22 01:51:44;;;;;;;;;47.50;37.50;19.50;99.90;;;;;;4999585;28;8800;-66
2022/01/22 01:59:36;;;;;;;;;36.75;33.25;19.80;99.90;;;;;;5002301;28;8772;-67
2022/01/22 02:02:03;;;;;;;;;41.00;34.50;19.90;99.90;;;;;;5017259;28;8788;-66
2022/01/22 02:04:30;;;;;;;;;38.75;33.00;20.00;99.90;;;;;;5015284;28;8777;-67
2022/01/22 02:06:57;;;;;;;;;39.75;31.50;20.20;99.90;;;;;;5036228;28;8758;-67
2022/01/22 02:09:24;;;;;;;;;32.25;27.75;20.20;99.90;;;;;;5036505;28;8788;-66
2022/01/22 02:12:01;;;;;;;;;38.50;32.75;20.30;99.90;;;;;;5036580;28;8891;-66
2022/01/22 02:25:36;;;;;;;;;39.00;30.75;20.80;99.90;;;;;;5036904;28;8754;-65
2022/01/22 02:28:04;;;;;;;;;36.50;33.75;20.80;99.90;;;;;;5035816;28;8742;-66
2022/01/22 02:30:33;;;;;;;;;33.50;30.50;20.80;99.90;;;;;;5036707;28;8904;-66
2022/01/22 02:35:58;;;;;;;;;45.00;37.00;20.90;99.90;;;;;;5027238;28;8800;-66
2022/01/22 02:38:34;;;;;;;;;31.25;28.50;21.00;99.90;;;;;;5016932;28;8816;-66
2022/01/22 02:41:01;;;;;;;;;42.25;33.50;21.10;99.90;;;;;;5017157;28;8818;-66
2022/01/22 02:43:31;;;;;;;;;35.75;32.25;21.20;99.90;;;;;;5016516;28;8863;-66
2022/01/22 02:46:00;;;;;;;;;31.25;30.25;21.20;99.90;;;;;;5017298;28;8748;-66
2022/01/22 02:48:30;;;;;;;;;41.50;32.25;21.30;99.90;;;;;;5016166;28;8911;-66
2022/01/22 02:51:00;;;;;;;;;33.00;28.00;21.40;99.90;;;;;;5027090;28;8876;-66
2022/01/22 02:53:28;;;;;;;;;34.00;31.50;21.40;99.90;;;;;;5034510;28;8908;-66
2022/01/22 02:55:55;;;;;;;;;39.00;34.25;21.30;99.90;;;;;;5039123;28;8817;-66
2022/01/22 02:58:22;;;;;;;;;34.25;29.25;21.50;99.90;;;;;;5040293;28;8816;-65
2022/01/22 03:00:49;;;;;;;;;37.50;31.00;21.40;99.90;;;;;;5039258;28;8742;-66
2022/01/22 03:03:16;;;;;;;;;35.50;31.50;21.40;99.90;;;;;;5040228;28;9462;-66
2022/01/22 03:05:42;;;;;;;;;36.75;30.50;21.50;99.90;;;;;;5038931;28;8844;-66
2022/01/22 03:08:10;;;;;;;;;36.40;30.00;21.70;99.90;;;;;;5040004;28;8777;-67
2022/01/22 03:10:38;;;;;;;;;36.50;33.00;21.80;99.90;;;;;;5040095;28;8761;-66
2022/01/22 03:23:12;;;;;;;;;29.25;27.50;22.30;99.90;;;;;;5040049;28;8943;-66
2022/01/22 03:28:28;;;;;;;;;37.25;33.50;22.40;99.90;;;;;;5040305;28;8734;-65
2022/01/22 03:30:55;;;;;;;;;29.75;27.75;22.40;99.90;;;;;;5055049;28;8758;-66
2022/01/22 03:33:24;;;;;;;;;19.50;14.75;22.50;99.90;;;;;;5039609;28;8840;-65
2022/01/22 03:35:55;;;;;;;;;37.25;28.75;22.70;99.90;;;;;;5029683;28;8789;-66
2022/01/22 03:38:23;;;;;;;;;27.00;25.25;22.80;99.90;;;;;;5019664;28;8764;-67
2022/01/22 03:40:50;;;;;;;;;30.75;28.00;22.80;99.90;;;;;;5019477;28;8790;-67
2022/01/22 03:43:18;;;;;;;;;28.50;26.00;22.80;99.90;;;;;;5019944;28;8741;-66
2022/01/22 03:45:44;;;;;;;;;31.00;29.25;22.90;99.90;;;;;;5017647;28;8823;-66
2022/01/22 03:48:11;;;;;;;;;37.50;32.75;22.90;99.90;;;;;;5018553;28;8772;-66
2022/01/22 03:50:39;;;;;;;;;29.00;27.50;23.10;99.90;;;;;;5027132;28;8802;-67
2022/01/22 03:53:05;;;;;;;;;25.40;22.40;23.20;99.90;;;;;;5005285;28;8762;-67
2022/01/22 03:56:06;;;;;;;;;27.20;26.80;23.30;99.90;;;;;;5038610;28;8781;-67
2022/01/22 03:58:24;;;;;;;;;30.40;26.40;23.40;99.90;;;;;;5034890;28;8849;-65
2022/01/22 04:01:03;;;;;;;;;29.80;26.20;23.60;99.90;;;;;;5039897;28;8878;-67
2022/01/22 04:03:35;;;;;;;;;34.40;25.60;23.70;99.90;;;;;;5038704;28;8786;-66
2022/01/22 04:06:46;;;;;;;;;30.25;21.50;23.60;99.90;;;;;;5037399;28;8755;-66
2022/01/22 04:09:09;;;;;;;;;27.00;27.00;23.70;99.90;;;;;;5037849;28;8766;-66
2022/01/22 04:11:40;;;;;;;;;28.75;26.25;23.60;99.90;;;;;;5038678;28;8870;-66
2022/01/22 04:14:14;;;;;;;;;18.50;12.75;23.70;99.90;;;;;;5037429;28;8781;-67
2022/01/22 04:16:53;;;;;;;;;29.25;25.00;23.80;99.90;;;;;;5038009;28;8869;-66
2022/01/22 04:24:55;;;;;;;;;28.00;23.50;24.20;99.90;;;;;;5018116;28;8745;-66
2022/01/22 04:27:27;;;;;;;;;27.00;24.25;24.30;99.90;;;;;;5018726;28;8780;-66
2022/01/22 04:29:58;;;;;;;;;31.00;26.00;24.30;99.90;;;;;;5018886;28;8756;-66
2022/01/22 04:32:28;;;;;;;;;28.50;25.00;24.50;99.90;;;;;;5018492;28;8763;-66
2022/01/22 04:34:55;;;;;;;;;30.50;26.25;24.40;99.90;;;;;;5019413;28;8890;-66
2022/01/22 04:37:24;;;;;;;;;26.50;25.25;24.50;99.90;;;;;;5038471;28;8836;-65
2022/01/22 04:39:50;;;;;;;;;33.25;26.00;24.70;99.90;;;;;;5037407;28;9533;-66
2022/01/22 04:42:18;;;;;;;;;27.50;23.00;24.80;99.90;;;;;;5038355;28;8876;-66
2022/01/22 04:45:00;;;;;;;;;19.00;19.00;24.80;99.90;;;;;;5037978;28;8766;-66
2022/01/22 04:47:35;;;;;;;;;29.25;24.25;24.90;99.90;;;;;;5037378;28;8762;-66
2022/01/22 04:55:33;;;;;;;;;23.50;21.75;24.90;99.90;;;;;;5018229;28;9422;-66
2022/01/22 04:58:03;;;;;;;;;27.50;26.75;25.10;99.90;;;;;;5000782;28;8714;-66
2022/01/22 05:00:40;;;;;;;;;28.25;24.00;25.20;99.90;;;;;;5016626;28;8773;-66
2022/01/22 05:03:06;;;;;;;;;27.75;27.00;25.20;99.90;;;;;;5017166;28;8760;-66
2022/01/22 05:05:33;;;;;;;;;30.25;25.00;25.20;99.90;;;;;;5024968;28;8790;-65
2022/01/22 05:08:00;;;;;;;;;25.60;20.40;25.30;99.90;;;;;;5036484;28;8757;-66
2022/01/22 05:10:27;;;;;;;;;27.20;22.80;25.40;99.90;;;;;;5037312;28;9439;-65
2022/01/22 05:12:53;;;;;;;;;23.50;21.25;25.60;99.90;;;;;;5037838;28;8837;-66
2022/01/22 05:15:21;;;;;;;;;21.40;19.80;25.80;99.90;;;;;;5037259;28;8766;-65
2022/01/22 05:17:48;;;;;;;;;23.00;21.00;25.90;99.90;;;;;;5035251;28;8817;-65
2022/01/22 05:20:27;;;;;;;;;22.75;22.75;25.90;99.90;;;;;;5032813;28;9501;-65
2022/01/22 05:23:07;;;;;;;;;24.25;21.25;26.00;99.90;;;;;;5017488;28;8780;-65
2022/01/22 05:25:42;;;;;;;;;17.25;14.75;26.00;99.90;;;;;;5017163;28;8736;-65
2022/01/22 05:38:43;;;;;;;;;22.50;22.00;26.30;99.90;;;;;;5037687;28;8753;-65
2022/01/22 05:41:11;;;;;;;;;20.20;19.00;26.50;99.10;;;;;;5019900;28;8776;-65
2022/01/22 05:43:37;;;;;;;;;25.60;19.40;26.50;99.30;;;;;;5036102;28;8778;-65
2022/01/22 05:46:04;;;;;;;;;25.00;20.25;26.50;98.70;;;;;;5038006;28;9447;-65
2022/01/22 05:48:31;;;;;;;;;19.75;18.75;26.50;98.70;;;;;;5019465;28;8793;-65
2022/01/22 05:51:01;;;;;;;;;24.50;21.50;26.60;98.60;;;;;;5026560;28;8772;-65
2022/01/22 05:53:40;;;;;;;;;28.00;22.25;26.60;99.00;;;;;;5017070;28;8791;-66
2022/01/22 06:01:19;;;;;;;;;21.75;19.75;26.70;98.50;;;;;;5017036;28;8887;-65
2022/01/22 06:03:46;;;;;;;;;22.75;19.00;26.80;98.00;;;;;;5017081;28;8883;-65
2022/01/22 06:06:13;;;;;;;;;21.00;16.75;26.90;97.80;;;;;;5028402;28;8805;-65
2022/01/22 06:08:46;;;;;;;;;26.25;22.75;26.90;97.30;;;;;;5037038;28;9070;-65
2022/01/22 06:11:21;;;;;;;;;22.75;21.50;26.90;96.50;;;;;;5037158;28;9081;-65
2022/01/22 06:13:48;;;;;;;;;19.00;17.00;26.90;97.60;;;;;;5035433;28;8770;-64
2022/01/22 06:16:19;;;;;;;;;20.25;19.00;26.90;97.50;;;;;;5036258;28;8786;-65
2022/01/22 06:18:46;;;;;;;;;20.00;17.75;27.10;98.10;;;;;;5035815;28;8762;-65
2022/01/22 06:21:13;;;;;;;;;21.80;19.60;27.20;97.10;;;;;;5022621;28;8800;-65
2022/01/22 06:23:40;;;;;;;;;21.00;18.40;27.30;96.20;;;;;;5007031;28;8782;-64
2022/01/22 06:26:07;;;;;;;;;22.00;17.40;27.20;96.00;;;;;;5017289;28;8886;-65
2022/01/22 06:28:37;;;;;;;;;21.00;21.00;27.30;96.10;;;;;;5017067;28;8737;-64
2022/01/22 06:31:07;;;;;;;;;21.50;19.00;27.30;96.30;;;;;;5021440;28;8815;-64
2022/01/22 06:33:34;;;;;;;;;22.00;20.00;27.40;94.70;;;;;;5018899;28;8842;-65
2022/01/22 06:36:01;;;;;;;;;20.40;17.60;27.50;95.00;;;;;;5031739;28;8883;-65
2022/01/22 06:38:27;;;;;;;;;17.40;16.00;27.60;94.90;;;;;;5038864;28;9471;-64
2022/01/22 06:43:39;;;;;;;;;19.00;17.40;27.70;94.50;;;;;;5039897;28;8754;-64
2022/01/22 06:46:06;;;;;;;;;20.20;17.00;27.60;94.40;;;;;;5040804;28;8754;-66
2022/01/22 06:48:32;;;;;;;;;18.20;17.20;27.80;94.90;;;;;;5039012;28;8823;-65
2022/01/22 06:51:00;;;;;;;;;15.80;13.40;27.80;92.70;;;;;;5029178;28;8781;-66
2022/01/22 06:53:27;;;;;;;;;21.60;18.20;27.90;93.30;;;;;;5019937;28;9568;-65
2022/01/22 06:56:00;;;;;;;;;17.40;16.00;27.90;92.20;;;;;;5020153;28;8804;-65
2022/01/22 06:58:27;;;;;;;;;19.25;16.25;28.10;92.50;;;;;;5003080;28;8741;-64
2022/01/22 07:00:53;;;;;;;;;22.00;19.40;28.10;91.90;;;;;;5019538;28;8756;-65
2022/01/22 07:03:20;;;;;;;;;19.25;16.25;28.10;92.20;;;;;;5019989;28;8760;-65
2022/01/22 07:05:47;;;;;;;;;19.75;18.25;28.20;90.90;;;;;;5029239;28;8785;-64
2022/01/22 07:08:14;;;;;;;;;26.20;22.20;28.00;91.30;;;;;;5040079;28;8769;-64
2022/01/22 07:10:40;;;;;;;;;18.60;17.20;28.00;92.50;;;;;;5039746;28;8964;-65
2022/01/22 07:13:07;;;;;;;;;17.60;17.00;28.10;91.10;;;;;;5040257;28;8837;-64
2022/01/22 07:15:34;;;;;;;;;20.00;19.00;28.20;91.00;;;;;;5039425;28;8765;-65
2022/01/22 07:18:01;;;;;;;;;16.80;16.80;28.30;91.30;;;;;;5039873;28;8730;-65
2022/01/22 07:20:31;;;;;;;;;14.60;13.20;28.30;91.40;;;;;;5038029;28;8786;-65
2022/01/22 07:23:14;;;;;;;;;18.80;16.40;28.30;91.30;;;;;;5039686;28;8852;-65
2022/01/22 07:25:41;;;;;;;;;20.50;18.25;28.30;90.60;;;;;;5038657;28;8864;-65
2022/01/22 07:28:08;;;;;;;;;17.75;17.50;28.30;90.80;;;;;;5040382;28;8755;-65
2022/01/22 07:30:35;;;;;;;;;17.00;17.00;28.30;90.80;;;;;;5054600;28;8758;-65
2022/01/22 07:33:01;;;;;;;;;18.00;16.00;28.20;89.90;;;;;;5039309;28;9135;-65
2022/01/22 07:35:28;;;;;;;;;17.00;15.40;28.20;89.20;;;;;;5039438;28;8782;-66
2022/01/22 07:37:55;;;;;;;;;18.00;15.00;28.20;90.20;;;;;;5039725;28;8781;-65
2022/01/22 07:40:22;;;;;;;;;14.00;13.00;28.20;89.10;;;;;;5037980;28;8745;-64
2022/01/22 07:42:48;;;;;;;;;18.00;15.20;28.20;88.20;;;;;;5039312;28;8738;-65
2022/01/22 07:45:15;;;;;;;;;17.20;16.80;28.30;88.20;;;;;;5039664;28;8759;-65
2022/01/22 07:47:42;;;;;;;;;15.00;15.00;28.30;89.20;;;;;;5039604;28;8812;-65
2022/01/22 07:50:09;;;;;;;;;18.00;14.00;28.50;88.00;;;;;;5035826;28;8792;-65
2022/01/22 07:52:36;;;;;;;;;13.20;13.00;28.50;87.00;;;;;;5019279;28;8789;-65
2022/01/22 07:55:03;;;;;;;;;15.80;12.40;28.60;87.10;;;;;;5020250;28;8756;-65
2022/01/22 07:57:30;;;;;;;;;18.00;14.40;28.60;87.10;;;;;;5019089;28;8745;-65
2022/01/22 07:59:57;;;;;;;;;14.60;12.20;28.70;85.10;;;;;;5019348;28;8946;-65
2022/01/22 08:02:23;;;;;;;;;16.00;14.00;28.60;85.60;;;;;;5017878;28;8863;-65
2022/01/22 08:04:50;;;;;;;;;15.80;14.40;28.70;84.40;;;;;;5020720;28;8749;-65
2022/01/22 08:07:17;;;;;;;;;14.80;14.00;28.60;83.00;;;;;;5039845;28;8878;-65
2022/01/22 08:09:45;;;;;;;;;12.40;12.00;28.70;83.50;;;;;;5037784;28;8833;-65
2022/01/22 08:12:14;;;;;;;;;15.20;13.60;28.70;83.00;;;;;;5037007;28;10730;-65
2022/01/22 08:14:41;;;;;;;;;12.60;12.20;28.70;82.30;;;;;;5021502;28;8719;-64
2022/01/22 08:17:08;;;;;;;;;11.20;10.40;28.70;83.30;;;;;;5038253;28;8863;-65
2022/01/22 08:19:35;;;;;;;;;17.40;14.40;28.80;84.10;;;;;;5038608;28;8800;-64
2022/01/22 08:22:02;;;;;;;;;12.80;12.20;28.90;82.80;;;;;;5020261;28;8729;-65
2022/01/22 08:24:34;;;;;;;;;9.60;9.60;28.90;82.00;;;;;;5018555;28;8727;-64
2022/01/22 08:30:09;;;;;;;;;13.60;12.00;29.00;81.50;;;;;;4977482;28;8856;-65
2022/01/22 08:37:50;;;;;;;;;14.20;12.60;28.50;81.30;;;;;;4996866;28;9443;-65
2022/01/22 08:40:17;;;;;;;;;12.00;12.00;28.50;82.80;;;;;;4997296;28;8790;-65
2022/01/22 08:42:45;;;;;;;;;14.20;12.00;28.70;81.50;;;;;;4996375;28;8769;-64
2022/01/22 08:45:11;;;;;;;;;9.40;8.40;28.80;83.00;;;;;;4996854;28;8787;-64
2022/01/22 08:47:39;;;;;;;;;8.80;8.00;28.90;80.30;;;;;;4996425;28;8755;-64
2022/01/22 08:50:06;;;;;;;;;14.40;11.00;28.90;80.90;;;;;;4997084;28;8779;-65
2022/01/22 08:52:35;;;;;;;;;11.60;11.00;28.80;82.80;;;;;;4979589;28;8759;-64
2022/01/22 08:55:04;;;;;;;;;8.20;7.20;28.80;81.40;;;;;;4997382;28;8723;-65
2022/01/22 08:57:31;;;;;;;;;11.20;11.20;28.70;81.40;;;;;;4996218;28;9435;-65
2022/01/22 08:59:57;;;;;;;;;11.80;10.60;28.80;81.50;;;;;;4999233;28;8790;-65
2022/01/22 09:02:24;;;;;;;;;11.00;10.20;28.80;81.70;;;;;;5016474;28;8741;-64
2022/01/22 09:04:52;;;;;;;;;15.80;11.00;28.60;81.60;;;;;;5018948;28;8752;-64
2022/01/22 09:07:19;;;;;;;;;11.00;11.00;28.50;82.20;;;;;;5038079;28;8719;-64
2022/01/22 09:09:48;;;;;;;;;10.60;10.60;28.30;81.70;;;;;;5037828;28;8742;-64
2022/01/22 09:12:16;;;;;;;;;11.60;11.00;28.20;81.60;;;;;;5037278;28;8773;-65
2022/01/22 09:14:43;;;;;;;;;9.00;9.00;28.40;81.10;;;;;;5036314;28;8743;-65
2022/01/22 09:17:10;;;;;;;;;11.40;8.00;28.50;79.30;;;;;;5037374;28;8746;-64
2022/01/22 09:19:37;;;;;;;;;9.00;9.00;28.50;77.40;;;;;;5036016;28;8761;-64
2022/01/22 09:22:06;;;;;;;;;8.60;8.60;28.50;80.80;;;;;;5037586;28;8829;-64
2022/01/22 09:24:32;;;;;;;;;6.60;5.60;28.50;80.00;;;;;;5035944;28;8841;-64
2022/01/22 09:27:03;;;;;;;;;9.40;7.80;28.70;77.40;;;;;;5035658;28;9476;-64
2022/01/22 09:29:30;;;;;;;;;10.80;9.00;28.80;77.70;;;;;;5037027;28;8755;-64
2022/01/22 09:31:56;;;;;;;;;8.20;7.60;28.90;76.50;;;;;;5037216;28;8833;-64
2022/01/22 09:34:23;;;;;;;;;10.00;8.60;28.80;77.20;;;;;;5037515;28;9442;-64
2022/01/22 09:36:50;;;;;;;;;10.80;9.60;28.80;77.60;;;;;;5019674;28;8796;-64
2022/01/22 09:39:17;;;;;;;;;7.80;7.80;28.90;78.30;;;;;;5017293;28;8788;-64
2022/01/22 09:41:43;;;;;;;;;8.00;8.00;29.00;78.80;;;;;;5017312;28;8926;-65
2022/01/22 09:44:10;;;;;;;;;10.60;9.80;29.10;78.00;;;;;;5017846;28;9064;-64
2022/01/22 09:46:38;;;;;;;;;10.00;9.00;29.10;75.20;;;;;;5016752;28;8795;-64
2022/01/22 09:49:05;;;;;;;;;8.40;8.40;29.10;76.10;;;;;;5017746;28;8744;-65
2022/01/22 09:51:31;;;;;;;;;10.00;9.00;29.10;77.40;;;;;;5030458;28;8762;-65
2022/01/22 09:53:59;;;;;;;;;10.60;8.00;29.00;77.40;;;;;;5037038;28;9446;-64
2022/01/22 09:56:28;;;;;;;;;11.20;8.20;29.00;76.80;;;;;;5033685;28;8855;-65
2022/01/22 09:58:54;;;;;;;;;10.40;7.00;29.00;77.00;;;;;;5043930;28;8796;-65
2022/01/22 10:01:25;;;;;;;;;8.80;7.60;28.90;72.50;;;;;;5036916;28;8857;-64
2022/01/22 10:03:53;;;;;;;;;9.00;7.60;28.90;73.70;;;;;;5036707;28;8762;-64
2022/01/22 10:06:22;;;;;;;;;6.40;5.60;28.90;73.40;;;;;;5023021;28;8800;-65
2022/01/22 10:08:51;;;;;;;;;7.00;7.00;28.80;73.10;;;;;;5017145;28;8753;-64
2022/01/22 10:11:27;;;;;;;;;7.80;7.00;28.80;71.10;;;;;;5017194;28;8784;-65
2022/01/22 10:13:59;;;;;;;;;9.00;7.00;28.80;70.20;;;;;;5016488;28;8792;-65
2022/01/22 10:16:35;;;;;;;;;7.20;6.20;28.80;70.60;;;;;;5015570;28;8776;-65
2022/01/22 10:19:19;;;;;;;;;9.40;8.00;28.70;71.00;;;;;;5017276;28;8772;-65
2022/01/22 10:21:54;;;;;;;;;9.20;8.00;28.70;71.70;;;;;;5033425;28;8766;-65
2022/01/22 10:24:45;;;;;;;;;8.00;8.00;28.60;72.70;;;;;;5036717;28;8843;-65
2022/01/22 10:30:14;;;;;;;;;13.60;7.80;28.50;74.90;;;;;;5036759;28;8953;-65
2022/01/22 10:35:24;;;;;;;;;12.20;11.20;28.50;74.10;;;;;;5035039;28;8766;-65
2022/01/22 10:37:55;;;;;;;;;10.80;8.60;28.40;74.50;;;;;;5036750;28;8742;-65
2022/01/22 10:40:33;;;;;;;;;11.00;9.80;28.30;72.60;;;;;;5035381;28;8738;-65
2022/01/22 10:43:15;;;;;;;;;12.20;10.20;28.20;72.30;;;;;;5035929;28;8773;-64
2022/01/22 10:45:43;;;;;;;;;8.20;7.20;28.20;70.50;;;;;;5036619;28;9446;-65
2022/01/22 10:48:17;;;;;;;;;0.80;0.00;28.10;71.00;;;;;;5035310;28;8776;-65
2022/01/22 10:50:44;;;;;;;;;8.40;7.00;28.00;70.40;;;;;;5036210;28;8758;-65
2022/01/22 10:53:11;;;;;;;;;9.00;9.00;27.90;70.60;;;;;;5034893;28;10502;-65
2022/01/22 10:56:01;;;;;;;;;9.20;8.40;27.80;70.60;;;;;;5018504;28;8766;-65
2022/01/22 10:58:28;;;;;;;;;9.60;9.60;27.60;71.10;;;;;;5036389;28;8794;-64
2022/01/22 11:01:05;;;;;;;;;11.20;7.60;27.40;71.50;;;;;;5035389;28;8758;-65
2022/01/22 11:03:32;;;;;;;;;10.20;9.00;27.30;71.80;;;;;;5051222;28;8770;-65
2022/01/22 11:06:04;;;;;;;;;13.20;11.40;27.10;72.50;;;;;;5025449;28;8784;-65
2022/01/22 11:08:30;;;;;;;;;14.40;11.40;27.00;73.10;;;;;;5016252;28;8757;-65
2022/01/22 11:10:57;;;;;;;;;12.20;12.00;26.90;72.70;;;;;;5015268;28;9007;-65
2022/01/22 11:13:24;;;;;;;;;15.80;10.40;26.70;73.80;;;;;;5014813;28;8841;-65
2022/01/22 11:15:51;;;;;;;;;14.40;13.40;26.70;74.30;;;;;;5016043;28;8843;-65
2022/01/22 11:18:19;;;;;;;;;17.60;14.00;26.50;74.20;;;;;;5019791;28;8772;-65
2022/01/22 11:20:46;;;;;;;;;15.80;14.40;26.50;75.30;;;;;;5027315;28;8790;-65
2022/01/22 11:23:14;;;;;;;;;18.00;13.60;26.30;75.40;;;;;;5022279;28;8790;-65
2022/01/22 11:25:41;;;;;;;;;12.40;12.40;26.20;75.70;;;;;;5038597;28;8770;-64
2022/01/22 11:28:08;;;;;;;;;12.60;12.60;26.20;76.00;;;;;;5038959;28;8767;-65
2022/01/22 11:30:35;;;;;;;;;13.00;10.60;26.10;76.90;;;;;;5039502;28;8968;-65
2022/01/22 11:33:09;;;;;;;;;8.40;7.20;26.00;77.30;;;;;;5038103;28;8809;-65
2022/01/22 11:35:49;;;;;;;;;9.60;7.80;25.90;77.50;;;;;;5037625;28;9474;-65
2022/01/22 11:38:19;;;;;;;;;13.60;12.00;25.80;78.00;;;;;;5038314;28;8770;-65
2022/01/22 11:41:16;;;;;;;;;14.20;13.00;25.70;78.80;;;;;;5039850;28;8851;-65
2022/01/22 11:44:09;;;;;;;;;12.60;11.80;25.60;79.50;;;;;;5038664;28;9418;-65
2022/01/22 11:46:42;;;;;;;;;18.00;14.60;25.50;79.90;;;;;;5038485;28;9442;-64
2022/01/22 11:49:13;;;;;;;;;17.00;14.00;25.40;80.10;;;;;;5039054;28;8746;-65
2022/01/22 11:51:41;;;;;;;;;15.40;11.20;25.30;80.70;;;;;;5021943;28;8776;-65
2022/01/22 11:54:07;;;;;;;;;9.80;9.00;25.20;81.10;;;;;;5018924;28;8842;-65
2022/01/22 11:56:54;;;;;;;;;11.50;10.50;25.20;81.40;;;;;;5019089;28;8796;-65
2022/01/22 11:59:31;;;;;;;;;17.00;15.75;25.10;81.70;;;;;;5019109;28;8769;-64
2022/01/22 12:02:03;;;;;;;;;16.20;14.20;25.10;82.10;;;;;;5019497;28;8823;-65
2022/01/22 12:04:39;;;;;;;;;20.50;17.00;25.00;83.10;;;;;;5018102;28;8757;-65
2022/01/22 12:07:07;;;;;;;;;17.00;14.50;25.00;83.20;;;;;;5039378;28;8844;-65
2022/01/22 12:09:41;;;;;;;;;21.00;17.75;24.90;83.20;;;;;;5038421;28;8865;-65
2022/01/22 12:15:08;;;;;;;;;36.25;30.75;24.80;84.40;;;;;;5038850;28;9214;-65
2022/01/22 12:18:01;;;;;;;;;41.25;33.50;24.80;85.00;;;;;;5037218;28;9411;-64
2022/01/22 12:23:09;;;;;;;;;42.50;34.75;24.60;86.00;;;;;;5027378;28;8762;-65
2022/01/22 12:25:36;;;;;;;;;35.00;31.25;24.60;85.40;;;;;;5038351;28;8773;-65
2022/01/22 12:28:04;;;;;;;;;33.50;26.50;24.40;86.20;;;;;;5037305;28;8746;-65
2022/01/22 12:30:44;;;;;;;;;48.25;34.50;24.30;88.20;;;;;;5037975;28;8770;-65
2022/01/22 12:33:33;;;;;;;;;46.25;37.00;24.30;87.90;;;;;;5038476;28;8806;-65
2022/01/22 12:36:02;;;;;;;;;31.75;25.75;24.20;87.70;;;;;;5027632;28;8781;-65
2022/01/22 12:38:51;;;;;;;;;32.75;28.00;24.20;86.70;;;;;;5016970;28;9499;-65
2022/01/22 12:46:50;;;;;;;;;37.75;32.75;24.20;86.50;;;;;;5017407;28;8760;-65
2022/01/22 12:49:17;;;;;;;;;36.25;30.25;24.10;85.70;;;;;;5018960;28;9410;-65
2022/01/22 12:51:43;;;;;;;;;53.50;40.00;24.20;85.80;;;;;;5033312;28;8793;-65
2022/01/22 12:54:10;;;;;;;;;35.75;31.50;24.10;86.00;;;;;;5037842;28;8818;-65
2022/01/22 12:56:51;;;;;;;;;37.25;32.25;24.10;86.60;;;;;;5036209;28;8797;-65
2022/01/22 12:59:18;;;;;;;;;36.75;33.00;24.10;87.00;;;;;;5037134;28;8762;-64
2022/01/22 13:01:47;;;;;;;;;39.00;32.00;24.00;89.40;;;;;;5036299;28;8753;-65
2022/01/22 13:04:14;;;;;;;;;34.25;29.25;23.90;91.30;;;;;;5036735;28;8770;-65
2022/01/22 13:06:47;;;;;;;;;34.75;30.50;23.80;91.50;;;;;;5021284;28;8773;-65
2022/01/22 13:09:14;;;;;;;;;34.50;30.75;23.70;92.70;;;;;;5016831;28;8799;-65
2022/01/22 13:11:48;;;;;;;;;34.25;29.75;23.60;92.30;;;;;;5016080;28;8756;-65
2022/01/22 13:14:16;;;;;;;;;30.00;26.50;23.60;92.70;;;;;;5000914;28;8985;-65
2022/01/22 13:16:50;;;;;;;;;33.25;25.25;23.50;92.40;;;;;;5000840;28;8757;-65
2022/01/22 13:19:17;;;;;;;;;31.25;25.50;23.40;92.30;;;;;;5018511;28;8745;-65
2022/01/22 13:22:10;;;;;;;;;33.75;24.00;23.30;92.30;;;;;;5033587;28;8903;-64
2022/01/22 13:24:37;;;;;;;;;32.00;26.00;23.10;92.90;;;;;;5048429;28;8786;-65
2022/01/22 13:27:12;;;;;;;;;28.25;26.25;23.10;93.40;;;;;;5037303;28;8754;-64
2022/01/22 13:29:44;;;;;;;;;31.75;25.25;23.00;93.20;;;;;;5037488;28;8770;-65
2022/01/22 13:38:32;;;;;;;;;31.50;27.50;22.90;95.00;;;;;;5017498;28;8749;-65
2022/01/22 13:49:15;;;;;;;;;33.00;26.75;22.60;94.40;;;;;;5017622;28;8761;-65
2022/01/22 13:51:43;;;;;;;;;34.00;26.75;22.50;94.60;;;;;;5031992;28;8875;-65
2022/01/22 13:54:10;;;;;;;;;32.50;27.50;22.30;95.20;;;;;;5036962;28;8917;-65
2022/01/22 13:56:54;;;;;;;;;27.75;20.25;22.20;95.30;;;;;;5036370;28;8907;-65
2022/01/22 13:59:28;;;;;;;;;39.00;30.50;22.00;96.20;;;;;;5036636;28;8757;-65
2022/01/22 14:02:13;;;;;;;;;29.50;25.75;22.00;96.30;;;;;;5035847;28;8900;-65
2022/01/22 14:05:02;;;;;;;;;33.00;28.50;22.00;96.40;;;;;;5037006;28;8816;-64
2022/01/22 14:07:40;;;;;;;;;32.00;27.25;22.00;96.00;;;;;;5032453;28;8765;-64
2022/01/22 14:10:08;;;;;;;;;33.25;29.75;22.00;95.80;;;;;;5016284;28;8745;-65
2022/01/22 14:12:48;;;;;;;;;35.50;31.75;21.90;95.80;;;;;;5031701;28;8917;-65
2022/01/22 14:15:25;;;;;;;;;39.50;31.00;21.90;96.10;;;;;;5017110;28;8777;-65
2022/01/22 14:18:17;;;;;;;;;33.75;27.50;21.70;96.60;;;;;;5017120;28;8776;-65
2022/01/22 14:21:07;;;;;;;;;31.25;29.25;21.50;97.20;;;;;;5025167;28;8773;-65
2022/01/22 14:23:34;;;;;;;;;24.25;23.25;21.40;97.40;;;;;;5036750;28;8765;-65
2022/01/22 14:26:05;;;;;;;;;30.00;25.00;21.30;97.50;;;;;;5036429;28;8857;-65
2022/01/22 14:28:45;;;;;;;;;34.25;29.25;21.40;97.60;;;;;;5035071;28;8730;-64
2022/01/22 14:31:23;;;;;;;;;35.00;26.75;21.30;97.70;;;;;;5052573;28;8750;-65
2022/01/22 14:33:50;;;;;;;;;37.75;31.75;21.30;97.50;;;;;;5036858;28;8802;-65
2022/01/22 14:36:19;;;;;;;;;37.00;32.00;21.30;97.80;;;;;;5022051;28;8761;-65
2022/01/22 14:38:58;;;;;;;;;37.25;29.75;21.30;98.20;;;;;;5016652;28;8768;-65
2022/01/22 14:44:28;;;;;;;;;31.75;23.00;21.30;98.00;;;;;;5017080;28;8776;-64
2022/01/22 14:47:03;;;;;;;;;32.75;28.75;21.40;98.10;;;;;;5010804;28;8782;-64
2022/01/22 14:49:40;;;;;;;;;31.75;23.25;21.40;98.40;;;;;;5026667;28;8745;-65
2022/01/22 14:52:08;;;;;;;;;39.00;32.50;21.20;98.50;;;;;;5040917;28;8754;-64
2022/01/22 14:54:37;;;;;;;;;36.00;30.50;21.20;98.70;;;;;;5040061;28;8774;-64